Time;durP1;ratioP1;P1;durP2;ratioP2;P2;SDS_P1;SDS_P2;PMS_P1;PMS_P2;Temp;Humidity;BMP_temperature;BMP_pressure;BME280_temperature;BME280_humidity;BME280_pressure;Samples;Min_cycle;Max_cycle;Signal;HPM_P1;HPM_P2
2023/12/10 00:00:10;;;;;;;25.15;14.53;;;;;;;3.16;80.54;100250.52;1709002;83;21311;-93
2023/12/10 00:03:16;;;;;;;31.07;15.45;;;;;;;3.24;79.86;100248.00;1704627;81;21339;-92
2023/12/10 00:06:23;;;;;;;26.35;15.18;;;;;;;3.27;80.04;100240.98;1794415;79;21350;-92
2023/12/10 00:09:30;;;;;;;22.13;14.55;;;;;;;3.13;80.45;100235.91;1774911;77;21328;-93
2023/12/10 00:12:37;;;;;;;27.25;15.40;;;;;;;3.14;80.33;100238.11;1784072;80;21268;-92
2023/12/10 00:15:45;;;;;;;24.57;14.25;;;;;;;3.16;80.27;100232.95;1781300;79;21278;-92
2023/12/10 00:18:52;;;;;;;28.92;14.93;;;;;;;3.16;80.44;100229.39;1790043;78;21338;-92
2023/12/10 00:21:58;;;;;;;30.12;15.80;;;;;;;3.21;80.10;100230.70;1742354;80;21243;-93
2023/12/10 00:25:05;;;;;;;28.27;16.05;;;;;;;3.18;80.02;100233.66;1804091;78;21318;-93
2023/12/10 00:28:11;;;;;;;34.67;16.07;;;;;;;3.05;80.34;100234.34;1804900;78;21318;-92
2023/12/10 00:31:17;;;;;;;26.95;14.55;;;;;;;2.98;80.90;100230.45;1739183;82;21371;-93
2023/12/10 00:34:23;;;;;;;32.15;16.12;;;;;;;3.20;80.60;100230.36;1741322;81;22495;-92
2023/12/10 00:37:30;;;;;;;29.65;17.10;;;;;;;3.19;80.10;100229.96;1717074;82;21419;-93
2023/12/10 00:40:37;;;;;;;35.43;16.67;;;;;;;3.16;80.34;100229.39;1729006;82;21344;-93
2023/12/10 00:43:44;;;;;;;32.45;17.23;;;;;;;3.15;80.43;100220.40;1715360;82;21351;-94
2023/12/10 00:46:49;;;;;;;38.83;16.82;;;;;;;3.12;80.24;100220.69;1720775;81;21269;-93
2023/12/10 00:49:56;;;;;;;28.42;16.97;;;;;;;3.05;80.88;100222.17;1732356;82;21262;-92
2023/12/10 00:53:02;;;;;;;29.00;16.65;;;;;;;2.95;81.12;100217.19;1731681;82;21826;-93
2023/12/10 00:56:07;;;;;;;28.73;17.00;;;;;;;3.08;80.74;100219.22;1752161;81;22068;-93
2023/12/10 00:59:14;;;;;;;27.58;16.73;;;;;;;3.06;80.89;100216.66;1750022;80;21890;-94
2023/12/10 01:02:20;;;;;;;32.67;17.02;;;;;;;3.15;80.59;100212.29;1732639;80;21359;-93
2023/12/10 01:05:28;;;;;;;30.00;17.00;;;;;;;3.13;80.82;100221.03;1776768;79;21354;-92
2023/12/10 01:08:35;;;;;;;38.45;17.62;;;;;;;3.27;80.38;100213.09;1760602;80;21889;-92
2023/12/10 01:11:43;;;;;;;30.02;16.50;;;;;;;3.45;79.54;100213.36;1796703;78;21341;-93
2023/12/10 01:14:49;;;;;;;29.70;16.77;;;;;;;3.39;79.63;100215.22;1796658;79;21323;-93
2023/12/10 01:17:56;;;;;;;30.57;17.52;;;;;;;3.48;79.56;100213.08;1787044;78;22000;-93
2023/12/10 01:21:02;;;;;;;30.70;17.15;;;;;;;3.48;79.60;100209.02;1773548;79;21898;-94
2023/12/10 01:24:08;;;;;;;29.72;17.10;;;;;;;3.36;79.73;100210.10;1796933;79;21342;-93
2023/12/10 01:27:16;;;;;;;30.70;16.77;;;;;;;3.35;79.96;100216.01;1782073;79;21324;-93
2023/12/10 01:30:23;;;;;;;38.17;17.85;;;;;;;3.37;79.94;100211.31;1779330;79;21958;-93
2023/12/10 01:33:30;;;;;;;34.75;17.75;;;;;;;3.36;80.27;100199.28;1793745;79;21331;-92
2023/12/10 01:36:37;;;;;;;37.78;17.50;;;;;;;3.49;79.78;100208.05;1715822;82;21333;-92
2023/12/10 01:39:43;;;;;;;30.40;17.67;;;;;;;3.55;79.86;100201.60;1775182;78;21292;-93
2023/12/10 01:42:56;;;;;;;29.60;16.20;;;;;;;3.44;79.83;100203.55;1742687;80;21403;-92
2023/12/10 01:46:04;;;;;;;29.10;17.02;;;;;;;3.43;80.13;100205.86;1805186;78;21379;-93
2023/12/10 01:49:10;;;;;;;27.65;15.70;;;;;;;3.52;80.01;100203.71;1796650;78;21346;-92
2023/12/10 01:52:16;;;;;;;29.18;16.80;;;;;;;3.63;79.45;100205.00;1786374;80;21227;-93
2023/12/10 01:55:23;;;;;;;26.82;15.50;;;;;;;3.54;79.23;100201.75;1784875;78;21367;-92
2023/12/10 01:58:29;;;;;;;31.82;16.52;;;;;;;3.71;79.21;100199.75;1813069;77;21320;-91
2023/12/10 02:01:36;;;;;;;26.25;16.07;;;;;;;3.52;79.92;100205.06;1809708;78;21873;-92
2023/12/10 02:04:43;;;;;;;24.70;15.80;;;;;;;3.49;80.19;100204.00;1778934;78;21304;-92
2023/12/10 02:07:50;;;;;;;26.45;16.62;;;;;;;3.65;79.56;100200.30;1785561;79;21340;-93
2023/12/10 02:10:56;;;;;;;26.30;16.62;;;;;;;3.48;79.85;100201.80;1777158;79;21235;-93
2023/12/10 02:14:04;;;;;;;29.72;16.07;;;;;;;3.59;79.76;100203.05;1774220;79;21378;-94
2023/12/10 02:17:12;;;;;;;27.70;16.00;;;;;;;3.59;79.81;100206.26;1786652;80;21231;-93
2023/12/10 02:20:19;;;;;;;26.00;16.12;;;;;;;3.58;79.76;100214.02;1804270;77;23089;-92
2023/12/10 02:23:49;;;;;;;33.00;17.65;;;;;;;3.72;79.37;100204.69;1789207;79;21325;-93
2023/12/10 02:26:55;;;;;;;23.67;14.03;;;;;;;3.65;79.72;100212.47;1786761;79;21341;-93
2023/12/10 02:30:33;;;;;;;33.58;17.37;;;;;;;3.55;79.78;100212.42;1773389;80;21375;-93
2023/12/10 02:33:46;;;;;;;30.05;18.00;;;;;;;3.49;80.14;100212.11;1782247;79;21940;-92
2023/12/10 02:36:55;;;;;;;31.00;16.35;;;;;;;3.61;79.89;100202.05;1720729;82;21326;-93
2023/12/10 02:40:01;;;;;;;30.52;17.60;;;;;;;3.62;79.84;100203.77;1738368;81;22004;-93
2023/12/10 02:43:07;;;;;;;26.23;15.72;;;;;;;3.73;79.34;100199.14;1724721;82;21898;-93
2023/12/10 02:46:14;;;;;;;30.88;16.67;;;;;;;3.78;78.90;100202.29;1711365;82;21377;-92
2023/12/10 02:49:22;;;;;;;24.20;15.35;;;;;;;3.55;79.53;100207.02;1727250;81;21380;-92
2023/12/10 02:52:28;;;;;;;28.62;17.25;;;;;;;3.57;79.61;100219.89;1723853;82;21311;-93
2023/12/10 02:55:36;;;;;;;27.90;15.93;;;;;;;3.49;79.71;100220.22;1753091;81;21616;-92
2023/12/10 02:58:43;;;;;;;22.62;14.35;;;;;;;3.44;79.85;100221.98;1728588;79;21391;-93
2023/12/10 03:01:48;;;;;;;26.12;14.38;;;;;;;3.49;79.83;100221.58;1710696;82;21269;-93
2023/12/10 03:04:54;;;;;;;25.40;15.00;;;;;;;3.50;79.76;100218.73;1730862;79;21366;-92
2023/12/10 03:08:01;;;;;;;26.68;15.68;;;;;;;3.57;79.75;100208.22;1766423;80;21350;-92
2023/12/10 03:11:07;;;;;;;32.90;17.70;;;;;;;3.54;79.91;100206.66;1777200;79;21340;-92
2023/12/10 03:14:13;;;;;;;30.92;16.87;;;;;;;3.47;80.44;100210.02;1797831;78;21866;-95
2023/12/10 03:17:20;;;;;;;24.87;14.47;;;;;;;3.51;80.42;100207.41;1795821;79;21353;-93
2023/12/10 03:20:27;;;;;;;30.25;18.75;;;;;;;3.53;80.82;100209.51;1785936;78;21892;-93
2023/12/10 03:23:33;;;;;;;31.15;17.98;;;;;;;3.63;80.40;100200.09;1780614;79;21660;-92
2023/12/10 03:26:39;;;;;;;32.53;17.65;;;;;;;3.66;80.06;100203.36;1791259;79;21229;-93
2023/12/10 03:29:45;;;;;;;27.17;16.80;;;;;;;3.72;80.12;100205.55;1794155;79;21333;-93
2023/12/10 03:32:54;;;;;;;28.90;16.95;;;;;;;3.97;79.46;100208.78;1800833;79;21361;-93
2023/12/10 03:36:00;;;;;;;35.52;20.75;;;;;;;4.18;78.29;100210.05;1781457;79;21282;-93
2023/12/10 03:39:07;;;;;;;38.73;20.20;;;;;;;4.02;78.04;100209.22;1804710;78;21310;-93
2023/12/10 03:42:14;;;;;;;29.37;16.65;;;;;;;4.11;78.10;100207.05;1805933;78;21322;-92
2023/12/10 03:45:22;;;;;;;30.02;17.15;;;;;;;4.05;78.60;100200.34;1800351;79;21347;-92
2023/12/10 03:48:30;;;;;;;37.20;20.27;;;;;;;4.06;78.62;100203.41;1767192;79;21315;-92
2023/12/10 03:51:36;;;;;;;28.32;17.82;;;;;;;4.26;78.07;100201.61;1785610;79;21242;-92
2023/12/10 03:54:42;;;;;;;43.35;27.15;;;;;;;4.21;77.48;100202.52;1781834;79;21337;-93
2023/12/10 03:57:50;;;;;;;30.95;18.00;;;;;;;4.21;77.47;100214.70;1781136;79;21230;-93
2023/12/10 04:00:56;;;;;;;28.87;16.97;;;;;;;3.97;77.35;100210.98;1786183;79;21329;-93
2023/12/10 04:04:03;;;;;;;25.92;15.80;;;;;;;3.84;77.98;100216.63;1773898;80;21333;-92
2023/12/10 04:07:09;;;;;;;33.53;19.07;;;;;;;3.86;78.00;100230.04;1796962;79;21623;-92
2023/12/10 04:10:17;;;;;;;32.83;19.12;;;;;;;3.85;77.78;100229.16;1770341;80;21949;-92
2023/12/10 04:13:23;;;;;;;44.18;33.23;;;;;;;3.77;78.10;100233.55;1817035;77;21358;-91
2023/12/10 04:16:32;;;;;;;48.48;38.17;;;;;;;3.55;78.58;100230.50;1738189;82;21346;-93
2023/12/10 04:19:39;;;;;;;36.33;21.07;;;;;;;3.64;78.33;100235.11;1800841;78;21302;-92
2023/12/10 04:22:47;;;;;;;44.10;28.65;;;;;;;3.67;78.14;100229.44;1780486;77;21339;-91
2023/12/10 04:25:55;;;;;;;40.73;30.02;;;;;;;3.58;78.16;100231.09;1759342;80;21368;-93
2023/12/10 04:29:02;;;;;;;32.40;21.37;;;;;;;3.56;78.27;100244.37;1771490;78;21368;-93
2023/12/10 04:32:08;;;;;;;31.12;20.90;;;;;;;3.50;78.37;100249.83;1777156;80;21376;-92
2023/12/10 04:35:15;;;;;;;23.77;17.00;;;;;;;3.52;78.33;100241.58;1772112;78;21964;-92
2023/12/10 04:38:21;;;;;;;22.90;15.25;;;;;;;3.65;78.20;100247.64;1769997;78;21254;-92
2023/12/10 04:41:29;;;;;;;23.45;15.10;;;;;;;3.70;77.94;100244.53;1766065;80;21807;-93
2023/12/10 04:44:35;;;;;;;28.62;19.92;;;;;;;3.88;77.13;100246.12;1781555;79;21234;-93
2023/12/10 04:47:41;;;;;;;23.60;15.78;;;;;;;3.84;77.39;100255.86;1783254;79;21341;-92
2023/12/10 04:50:47;;;;;;;28.30;18.57;;;;;;;3.83;77.15;100251.44;1789705;78;21335;-93
2023/12/10 04:53:53;;;;;;;25.37;16.05;;;;;;;3.88;76.94;100251.54;1780149;79;21965;-93
2023/12/10 04:57:00;;;;;;;22.22;16.40;;;;;;;3.87;76.90;100251.19;1786842;79;21321;-92
2023/12/10 05:00:08;;;;;;;41.53;26.30;;;;;;;3.91;76.87;100256.69;1786952;80;21352;-92
2023/12/10 05:03:14;;;;;;;35.80;28.32;;;;;;;3.87;76.83;100257.95;1779252;80;21392;-94
2023/12/10 05:06:21;;;;;;;29.20;16.67;;;;;;;3.75;77.10;100266.12;1773803;80;22232;-91
2023/12/10 05:09:28;;;;;;;26.37;17.35;;;;;;;3.81;77.00;100267.44;1775297;80;21352;-92
2023/12/10 05:12:34;;;;;;;33.02;14.75;;;;;;;3.65;77.30;100261.16;1792233;79;21201;-92
2023/12/10 05:15:41;;;;;;;25.85;14.65;;;;;;;3.61;77.34;100263.77;1802040;79;21266;-93
2023/12/10 05:18:47;;;;;;;20.08;13.18;;;;;;;3.68;77.15;100264.97;1802586;79;21921;-92
2023/12/10 05:21:53;;;;;;;23.67;13.50;;;;;;;3.57;77.63;100267.22;1776376;79;21379;-92
2023/12/10 05:24:59;;;;;;;48.92;38.15;;;;;;;3.58;77.56;100276.23;1797667;79;21217;-92
2023/12/10 05:28:07;;;;;;;27.73;18.30;;;;;;;3.58;77.39;100276.23;1789998;79;21322;-92
2023/12/10 05:31:24;;;;;;;49.55;35.70;;;;;;;3.58;77.64;100276.23;1790311;79;21220;-93
2023/12/10 05:34:33;;;;;;;42.03;33.02;;;;;;;3.56;77.43;100284.45;1799706;78;21599;-93
2023/12/10 05:37:40;;;;;;;30.70;21.00;;;;;;;3.56;77.31;100286.30;1763520;80;21341;-92
2023/12/10 05:40:47;;;;;;;23.25;15.63;;;;;;;3.58;77.21;100291.10;1768728;80;21338;-93
2023/12/10 05:43:54;;;;;;;32.25;24.32;;;;;;;3.57;77.07;100298.33;1745054;79;21890;-93
2023/12/10 05:47:01;;;;;;;36.00;27.30;;;;;;;3.48;77.53;100294.20;1775325;79;21894;-92
2023/12/10 05:50:07;;;;;;;22.77;15.63;;;;;;;3.51;77.60;100293.95;1782777;78;21232;-93
2023/12/10 05:53:14;;;;;;;27.20;17.30;;;;;;;3.53;77.56;100301.45;1793807;79;21330;-93
2023/12/10 05:56:21;;;;;;;21.42;13.35;;;;;;;3.63;77.51;100303.73;1777101;80;21330;-93
2023/12/10 05:59:28;;;;;;;36.65;25.97;;;;;;;3.61;77.72;100309.75;1773788;80;21314;-93
2023/12/10 06:02:35;;;;;;;48.50;38.35;;;;;;;3.66;77.98;100306.66;1770725;80;21340;-93
2023/12/10 06:05:41;;;;;;;71.22;57.50;;;;;;;3.68;77.63;100320.42;1760704;80;21839;-93
2023/12/10 06:08:49;;;;;;;53.60;39.88;;;;;;;3.63;77.62;100319.96;1774217;79;21278;-92
2023/12/10 06:11:55;;;;;;;32.93;16.02;;;;;;;3.54;77.50;100319.39;1792589;76;21322;-94
2023/12/10 06:15:01;;;;;;;26.50;17.07;;;;;;;3.50;77.68;100323.34;1793692;79;21208;-93
2023/12/10 06:18:08;;;;;;;23.27;12.55;;;;;;;3.50;78.03;100327.41;1798259;77;21374;-93
2023/12/10 06:21:15;;;;;;;22.02;13.68;;;;;;;3.49;78.57;100332.45;1787469;78;21358;-92
2023/12/10 06:24:21;;;;;;;21.85;13.50;;;;;;;3.71;77.86;100339.08;1784354;78;21375;-94
2023/12/10 06:27:28;;;;;;;25.20;13.50;;;;;;;3.84;77.27;100341.09;1772776;79;21478;-91
2023/12/10 06:30:34;;;;;;;23.02;14.68;;;;;;;3.72;76.94;100334.05;1762078;80;21211;-91
2023/12/10 06:33:41;;;;;;;22.52;13.70;;;;;;;3.67;77.32;100329.53;1781542;78;21339;-92
2023/12/10 06:36:48;;;;;;;26.62;17.35;;;;;;;3.63;77.21;100330.78;1782262;79;21908;-93
2023/12/10 06:39:54;;;;;;;23.67;14.25;;;;;;;3.46;77.72;100339.47;1787291;79;21313;-92
2023/12/10 06:43:01;;;;;;;21.20;14.33;;;;;;;3.61;77.47;100341.36;1777670;79;21785;-92
2023/12/10 06:46:08;;;;;;;27.60;16.95;;;;;;;3.65;77.11;100336.91;1771168;80;21283;-93
2023/12/10 06:49:15;;;;;;;36.50;27.73;;;;;;;3.66;76.98;100342.67;1762707;80;21333;-92
2023/12/10 06:52:21;;;;;;;35.52;25.90;;;;;;;3.58;77.08;100350.61;1781815;79;21333;-93
2023/12/10 06:55:28;;;;;;;27.37;18.98;;;;;;;3.46;77.49;100349.78;1786768;79;21643;-92
2023/12/10 06:58:33;;;;;;;27.87;17.42;;;;;;;3.76;76.84;100359.83;1806103;78;21349;-94
2023/12/10 07:01:40;;;;;;;46.95;36.60;;;;;;;3.83;76.73;100359.67;1742867;81;21831;-93
2023/12/10 07:04:47;;;;;;;111.92;91.22;;;;;;;3.90;76.62;100367.26;1773022;79;21377;-93
2023/12/10 07:07:54;;;;;;;72.25;60.35;;;;;;;3.79;76.61;100370.89;1719435;81;21370;-92
2023/12/10 07:11:04;;;;;;;26.75;17.92;;;;;;;3.67;76.33;100375.98;1735138;81;21618;-93
2023/12/10 07:14:08;;;;;;;60.25;46.08;;;;;;;3.77;76.08;100376.45;1734646;81;22171;-93
2023/12/10 07:17:14;;;;;;;33.13;23.35;;;;;;;3.67;76.05;100380.94;1772696;80;21955;-93
2023/12/10 07:20:20;;;;;;;43.55;34.15;;;;;;;3.62;76.41;100380.94;1787489;79;21336;-93
2023/12/10 07:23:27;;;;;;;190.68;162.25;;;;;;;3.56;76.71;100394.48;1798888;79;21907;-93
2023/12/10 07:26:32;;;;;;;98.62;84.87;;;;;;;3.58;76.66;100388.47;1786372;79;21318;-94
2023/12/10 07:29:38;;;;;;;115.10;96.45;;;;;;;3.56;76.79;100388.58;1759403;80;21318;-93
2023/12/10 07:32:45;;;;;;;137.68;113.70;;;;;;;3.54;76.61;100404.09;1779111;79;21323;-93
2023/12/10 07:35:51;;;;;;;62.50;50.05;;;;;;;3.38;76.89;100408.20;1799355;78;21212;-93
2023/12/10 07:38:58;;;;;;;84.32;71.12;;;;;;;3.41;77.02;100418.77;1768945;79;21677;-94
2023/12/10 07:42:04;;;;;;;67.42;50.83;;;;;;;3.59;76.75;100421.29;1782898;79;21381;-92
2023/12/10 07:45:13;;;;;;;52.38;40.58;;;;;;;3.56;76.75;100425.59;1778114;79;21333;-93
2023/12/10 07:48:20;;;;;;;173.17;149.23;;;;;;;3.61;76.72;100417.09;1757218;80;21359;-93
2023/12/10 07:51:26;;;;;;;74.27;56.88;;;;;;;3.41;77.05;100421.47;1782046;79;21923;-94
2023/12/10 07:54:34;;;;;;;73.97;61.35;;;;;;;3.43;77.12;100417.64;1796480;79;21322;-93
2023/12/10 07:57:40;;;;;;;70.83;49.53;;;;;;;3.53;76.86;100421.81;1803667;78;21385;-91
2023/12/10 08:00:47;;;;;;;52.67;40.33;;;;;;;3.65;76.43;100420.77;1782251;77;21961;-94
2023/12/10 08:03:54;;;;;;;72.95;63.92;;;;;;;3.79;76.01;100425.86;1789600;79;21241;-93
2023/12/10 08:07:00;;;;;;;45.80;34.43;;;;;;;3.89;75.50;100430.50;1773649;79;21321;-93
2023/12/10 08:10:07;;;;;;;45.90;27.07;;;;;;;3.65;76.19;100431.58;1791066;79;21901;-92
2023/12/10 08:13:15;;;;;;;32.45;23.42;;;;;;;3.66;76.39;100429.73;1801670;79;21320;-93
2023/12/10 08:16:22;;;;;;;32.73;22.80;;;;;;;3.48;76.75;100434.83;1773674;80;21232;-93
2023/12/10 08:19:27;;;;;;;31.45;19.98;;;;;;;3.56;76.82;100431.86;1719248;83;21257;-93
2023/12/10 08:22:34;;;;;;;79.27;62.67;;;;;;;3.64;76.78;100435.78;1783369;79;21318;-93
2023/12/10 08:25:41;;;;;;;61.13;50.73;;;;;;;3.59;76.60;100430.75;1815263;77;21239;-93
2023/12/10 08:28:47;;;;;;;71.77;58.20;;;;;;;3.59;76.33;100430.75;1804421;78;21323;-93
2023/12/10 08:31:54;;;;;;;93.78;83.17;;;;;;;3.52;76.25;100429.53;1739651;80;21354;-94
2023/12/10 08:34:58;;;;;;;46.00;38.92;;;;;;;3.54;76.21;100428.93;1744011;81;21354;-93
2023/12/10 08:38:05;;;;;;;96.57;85.05;;;;;;;3.61;76.05;100424.70;1732773;80;21355;-94
2023/12/10 08:41:11;;;;;;;98.15;84.03;;;;;;;3.61;75.87;100431.47;1791868;79;21326;-93
2023/12/10 08:44:18;;;;;;;73.00;60.20;;;;;;;3.62;75.71;100423.72;1784401;80;21370;-93
2023/12/10 08:47:25;;;;;;;97.02;79.87;;;;;;;3.57;75.92;100424.09;1787804;80;21331;-94
2023/12/10 08:50:32;;;;;;;58.35;46.40;;;;;;;3.61;76.02;100426.56;1787967;80;21232;-93
2023/12/10 08:53:39;;;;;;;57.38;43.45;;;;;;;3.65;76.06;100428.88;1794076;78;21192;-93
2023/12/10 08:56:45;;;;;;;97.50;82.30;;;;;;;3.79;75.58;100429.07;1798969;78;21319;-93
2023/12/10 08:59:52;;;;;;;62.65;53.38;;;;;;;3.73;75.71;100429.09;1795690;78;21277;-92
2023/12/10 09:02:59;;;;;;;66.82;56.90;;;;;;;3.63;75.87;100420.55;1795820;78;21379;-93
2023/12/10 09:06:06;;;;;;;69.87;57.33;;;;;;;3.66;76.04;100427.03;1779837;80;21918;-94
2023/12/10 09:09:12;;;;;;;103.50;87.70;;;;;;;3.60;76.18;100424.35;1799733;78;21299;-93
2023/12/10 09:12:19;;;;;;;69.22;50.55;;;;;;;3.61;75.96;100432.82;1816052;77;21319;-94
2023/12/10 09:15:26;;;;;;;55.73;37.83;;;;;;;3.84;75.15;100428.18;1802717;78;21190;-93
2023/12/10 09:18:33;;;;;;;55.30;39.98;;;;;;;3.84;75.27;100419.56;1766522;80;21946;-94
2023/12/10 09:21:39;;;;;;;46.75;30.92;;;;;;;3.89;74.90;100422.38;1779267;79;21327;-94
2023/12/10 09:24:47;;;;;;;46.95;34.30;;;;;;;3.95;74.81;100409.66;1770877;79;21916;-93
2023/12/10 09:27:55;;;;;;;45.17;33.45;;;;;;;3.99;74.70;100415.19;1793146;79;21306;-93
2023/12/10 09:31:01;;;;;;;69.60;51.50;;;;;;;4.08;74.33;100411.69;1789508;79;21897;-93
2023/12/10 09:34:09;;;;;;;45.95;34.90;;;;;;;4.00;74.41;100406.06;1780352;79;21318;-94
2023/12/10 09:37:15;;;;;;;99.62;87.78;;;;;;;3.97;74.57;100407.20;1782546;80;21314;-93
2023/12/10 09:40:22;;;;;;;58.78;47.20;;;;;;;3.72;75.15;100407.09;1775505;77;21916;-94
2023/12/10 09:43:28;;;;;;;40.40;33.40;;;;;;;3.65;75.36;100404.53;1785115;80;21295;-94
2023/12/10 09:46:34;;;;;;;56.50;49.70;;;;;;;3.58;75.49;100400.14;1799386;79;21342;-93
2023/12/10 09:49:40;;;;;;;24.07;17.48;;;;;;;3.61;75.72;100408.48;1801159;79;21350;-94
2023/12/10 09:52:47;;;;;;;42.33;33.70;;;;;;;3.62;75.59;100400.72;1801223;79;21320;-93
2023/12/10 09:55:53;;;;;;;62.83;54.67;;;;;;;3.61;75.69;100403.07;1790950;77;21321;-93
2023/12/10 09:58:59;;;;;;;35.95;26.33;;;;;;;3.55;75.74;100416.63;1794067;79;21336;-93
2023/12/10 10:02:06;;;;;;;43.78;38.02;;;;;;;3.57;75.79;100403.81;1784845;79;21246;-92
2023/12/10 10:05:16;;;;;;;18.00;14.80;;;;;;;3.56;75.87;100416.13;1770876;79;21337;-93
2023/12/10 10:08:22;;;;;;;13.75;10.55;;;;;;;3.61;75.76;100416.59;1786468;80;21348;-93
2023/12/10 10:11:29;;;;;;;13.43;10.50;;;;;;;3.68;75.93;100415.10;1761861;80;21779;-93
2023/12/10 10:14:36;;;;;;;15.05;10.38;;;;;;;3.96;75.54;100416.32;1803731;78;21315;-94
2023/12/10 10:17:44;;;;;;;9.93;7.60;;;;;;;4.08;74.93;100420.66;1821140;77;21407;-93
2023/12/10 10:20:50;;;;;;;74.77;65.25;;;;;;;4.10;74.59;100409.73;1812964;77;21342;-93
2023/12/10 10:23:56;;;;;;;33.60;28.90;;;;;;;3.89;74.51;100400.73;1742808;81;21583;-93
2023/12/10 10:27:05;;;;;;;83.22;68.85;;;;;;;3.63;74.91;100403.81;1801712;77;21869;-93
2023/12/10 10:30:13;;;;;;;73.85;62.75;;;;;;;3.52;75.30;100401.14;1756688;79;21553;-93
2023/12/10 10:33:19;;;;;;;55.92;47.78;;;;;;;3.51;75.37;100398.08;1710468;81;21357;-94
2023/12/10 10:36:25;;;;;;;86.63;74.35;;;;;;;3.48;75.44;100395.61;1709936;82;21354;-93
2023/12/10 10:39:32;;;;;;;55.55;48.42;;;;;;;3.43;75.69;100400.06;1722107;82;21353;-94
2023/12/10 10:42:39;;;;;;;31.20;26.52;;;;;;;3.40;76.14;100398.12;1772598;78;21905;-93
2023/12/10 10:45:46;;;;;;;79.05;68.17;;;;;;;3.44;75.97;100400.95;1790146;79;21366;-93
2023/12/10 10:48:53;;;;;;;56.02;48.78;;;;;;;3.48;76.09;100399.67;1789243;79;21278;-94
2023/12/10 10:52:00;;;;;;;17.00;12.63;;;;;;;3.47;76.05;100411.48;1777808;79;21203;-94
2023/12/10 10:55:06;;;;;;;16.60;11.03;;;;;;;3.61;75.56;100409.83;1786317;79;21173;-95
2023/12/10 10:58:33;;;;;;;14.33;9.65;;;;;;;3.65;75.68;100405.88;1718207;83;21349;-93
2023/12/10 11:01:49;;;;;;;14.78;10.88;;;;;;;3.76;75.57;100409.02;1766129;79;21326;-93
2023/12/10 11:04:55;;;;;;;14.83;11.50;;;;;;;4.08;74.59;100407.13;1781651;78;21240;-94
2023/12/10 11:08:02;;;;;;;21.50;11.45;;;;;;;4.07;74.26;100405.42;1760265;79;21897;-94
2023/12/10 11:11:09;;;;;;;19.90;14.18;;;;;;;4.12;73.98;100409.08;1754400;78;21224;-93
2023/12/10 11:14:32;;;;;;;15.25;10.80;;;;;;;4.11;73.80;100406.02;1798535;78;21368;-93
2023/12/10 11:17:39;;;;;;;11.15;7.72;;;;;;;3.98;73.73;100399.94;1776168;80;21343;-93
2023/12/10 11:20:51;;;;;;;14.03;10.65;;;;;;;3.84;74.26;100406.53;1754883;80;21278;-94
2023/12/10 11:23:58;;;;;;;18.40;12.03;;;;;;;3.77;74.50;100402.15;1785565;79;21331;-93
2023/12/10 11:27:06;;;;;;;17.23;11.18;;;;;;;3.71;74.37;100412.12;1774911;79;22100;-94
2023/12/10 11:30:14;;;;;;;18.95;13.50;;;;;;;3.57;74.82;100416.48;1796624;79;21314;-94
2023/12/10 11:33:22;;;;;;;13.13;10.32;;;;;;;3.58;74.99;100419.58;1780734;79;21335;-93
2023/12/10 11:36:28;;;;;;;17.27;12.73;;;;;;;3.52;75.05;100418.72;1777114;79;21199;-93
2023/12/10 11:39:36;;;;;;;21.30;15.78;;;;;;;3.50;75.19;100413.94;1788002;79;21975;-94
2023/12/10 11:42:43;;;;;;;21.52;15.45;;;;;;;3.49;75.25;100414.44;1791711;79;21833;-94
2023/12/10 11:45:50;;;;;;;19.35;12.93;;;;;;;3.38;75.73;100423.92;1778206;77;21239;-93
2023/12/10 11:48:58;;;;;;;16.52;10.63;;;;;;;3.44;75.73;100425.28;1797742;79;21785;-93
2023/12/10 11:52:04;;;;;;;15.63;11.08;;;;;;;3.49;75.38;100429.81;1797408;76;21295;-93
2023/12/10 11:55:11;;;;;;;15.05;10.90;;;;;;;3.56;75.09;100425.59;1775862;77;21342;-94
2023/12/10 11:58:18;;;;;;;14.93;10.40;;;;;;;3.50;74.95;100424.27;1755619;80;21496;-93
2023/12/10 12:01:24;;;;;;;16.82;11.33;;;;;;;3.44;75.12;100429.34;1790214;79;21339;-93
2023/12/10 12:04:32;;;;;;;12.47;9.53;;;;;;;3.70;74.52;100426.64;1781915;79;22343;-93
2023/12/10 12:07:42;;;;;;;12.95;9.35;;;;;;;3.73;74.17;100420.13;1774616;80;21215;-94
2023/12/10 12:10:49;;;;;;;18.02;12.15;;;;;;;3.81;73.93;100425.72;1801511;78;21303;-93
2023/12/10 12:13:55;;;;;;;18.87;10.60;;;;;;;3.94;73.64;100426.90;1748981;81;21355;-94
2023/12/10 12:17:04;;;;;;;12.75;8.70;;;;;;;3.74;74.02;100429.95;1746394;77;21339;-94
2023/12/10 12:20:26;;;;;;;12.50;8.10;;;;;;;3.51;75.00;100431.88;1798005;79;21881;-94
2023/12/10 12:23:34;;;;;;;14.18;9.13;;;;;;;3.41;75.20;100439.91;1778049;79;21315;-92
2023/12/10 12:26:40;;;;;;;13.38;9.08;;;;;;;3.39;75.64;100442.35;1771175;80;21948;-93
2023/12/10 12:29:47;;;;;;;18.15;12.95;;;;;;;3.54;75.12;100435.69;1761952;80;21334;-92
2023/12/10 12:32:54;;;;;;;18.10;10.53;;;;;;;3.47;75.25;100442.59;1770204;80;21893;-92
2023/12/10 12:36:01;;;;;;;18.90;11.78;;;;;;;3.40;75.34;100441.39;1768736;79;21791;-94
2023/12/10 12:39:06;;;;;;;13.98;10.08;;;;;;;3.41;75.35;100437.70;1749025;81;21866;-93
2023/12/10 12:42:11;;;;;;;13.83;9.55;;;;;;;3.44;75.11;100440.16;1719068;82;21339;-93
2023/12/10 12:45:17;;;;;;;16.00;11.28;;;;;;;3.41;75.27;100444.45;1762053;80;21305;-93
2023/12/10 12:48:23;;;;;;;14.47;10.78;;;;;;;3.42;75.31;100436.70;1788815;79;21308;-93
2023/12/10 12:51:30;;;;;;;17.95;13.62;;;;;;;3.46;75.08;100436.81;1800478;79;21917;-93
2023/12/10 12:54:36;;;;;;;19.73;12.85;;;;;;;3.27;75.58;100446.95;1803198;79;21900;-92
2023/12/10 12:57:43;;;;;;;17.40;11.43;;;;;;;3.37;75.54;100441.14;1792266;79;21907;-92
2023/12/10 13:00:50;;;;;;;18.35;12.43;;;;;;;3.54;74.75;100435.20;1784081;79;21912;-92
2023/12/10 13:03:56;;;;;;;19.30;14.30;;;;;;;3.56;74.71;100446.73;1788728;79;21326;-93
2023/12/10 13:07:04;;;;;;;23.12;14.60;;;;;;;3.63;74.37;100447.59;1786107;79;21325;-91
2023/12/10 13:10:11;;;;;;;23.27;17.00;;;;;;;3.43;75.18;100454.14;1783478;80;21323;-92
2023/12/10 13:13:18;;;;;;;29.05;18.00;;;;;;;3.44;75.18;100462.65;1772452;79;22034;-92
2023/12/10 13:16:24;;;;;;;25.40;19.67;;;;;;;3.33;75.33;100462.16;1784280;78;21344;-92
2023/12/10 13:56:53;;;;;;;53.83;47.15;;;;;;;1.96;85.42;100514.94;1809762;79;28196;-84
2023/12/10 13:59:58;;;;;;;23.57;19.55;;;;;;;2.09;85.74;100522.48;1785173;80;21326;-84
2023/12/10 14:03:04;;;;;;;20.90;14.60;;;;;;;1.77;86.10;100526.25;1770962;80;21294;-84
2023/12/10 14:06:11;;;;;;;17.12;13.38;;;;;;;2.35;86.04;100531.75;1754148;80;21341;-84
2023/12/10 14:09:16;;;;;;;37.85;33.38;;;;;;;3.44;81.97;100526.20;1747057;82;21910;-84
2023/12/10 14:12:22;;;;;;;135.25;120.28;;;;;;;2.52;82.21;100534.02;1756988;81;21317;-84
2023/12/10 14:15:28;;;;;;;60.08;48.55;;;;;;;2.88;81.57;100534.33;1786926;79;21295;-84
2023/12/10 14:18:34;;;;;;;124.47;107.85;;;;;;;3.24;80.81;100537.25;1817040;79;21302;-84
2023/12/10 14:21:34;;;;;;;79.20;66.55;;;;;;;2.62;81.83;100540.91;1817284;79;21853;-84
2023/12/10 14:24:27;;;;;;;41.33;31.60;;;;;;;2.68;82.30;100543.12;1817230;79;21307;-84
2023/12/10 14:27:14;;;;;;;34.45;28.57;;;;;;;2.95;81.83;100543.64;1817362;79;21837;-85
2023/12/10 14:30:07;;;;;;;45.65;38.28;;;;;;;3.19;79.79;100553.48;1817262;79;21948;-84
2023/12/10 14:33:00;;;;;;;81.60;72.75;;;;;;;2.66;81.24;100554.55;1801701;79;21281;-84
2023/12/10 14:35:53;;;;;;;57.62;49.73;;;;;;;2.84;80.38;100544.14;1779924;80;21303;-84
2023/12/10 14:38:58;;;;;;;39.63;33.73;;;;;;;2.56;81.47;100549.86;1778757;80;21300;-84
2023/12/10 14:42:03;;;;;;;54.58;46.92;;;;;;;2.52;81.81;100543.47;1778766;80;21299;-84
2023/12/10 14:45:09;;;;;;;76.95;64.22;;;;;;;3.44;80.39;100554.59;1778509;80;21354;-84
2023/12/10 14:48:16;;;;;;;33.88;28.02;;;;;;;3.11;79.33;100561.37;1744104;80;21298;-84
2023/12/10 14:51:24;;;;;;;84.40;72.20;;;;;;;2.36;81.18;100560.49;1752746;80;21324;-84
2023/12/10 14:54:31;;;;;;;30.15;24.75;;;;;;;2.43;82.12;100573.88;1754063;82;21296;-84